createdAt,value
2018-12-18T00:00:18.490Z,15.63
2018-12-18T00:02:53.480Z,16.53
2018-12-18T00:05:33.613Z,17.20
2018-12-18T00:08:08.389Z,16.00
2018-12-18T00:10:52.329Z,15.83
2018-12-18T00:13:27.091Z,16.27
2018-12-18T00:16:01.758Z,15.73
2018-12-18T00:18:36.650Z,16.40
2018-12-18T00:21:11.339Z,16.50
2018-12-18T00:23:46.241Z,17.03
2018-12-18T00:26:21.078Z,17.47
2018-12-18T00:28:55.832Z,16.40
2018-12-18T00:31:30.666Z,16.80
2018-12-18T00:34:05.335Z,17.07
2018-12-18T00:36:40.166Z,16.00
2018-12-18T00:39:15.550Z,15.83
2018-12-18T00:41:52.386Z,15.40
2018-12-18T00:44:27.294Z,15.73
2018-12-18T00:47:02.101Z,13.97
2018-12-18T00:49:37.054Z,15.60
2018-12-18T00:52:12.024Z,15.57
2018-12-18T00:54:46.867Z,15.37
2018-12-18T00:57:21.693Z,15.13
2018-12-18T00:59:56.512Z,16.07
2018-12-18T01:02:31.173Z,16.53
2018-12-18T01:05:06.603Z,17.70
2018-12-18T01:07:41.330Z,15.13
2018-12-18T01:10:16.394Z,16.80
2018-12-18T01:12:51.200Z,16.77
2018-12-18T01:15:25.966Z,16.53
2018-12-18T01:18:00.727Z,16.30
2018-12-18T01:20:35.563Z,15.70
2018-12-18T01:23:10.390Z,15.33
2018-12-18T01:25:45.109Z,14.77
2018-12-18T01:28:19.959Z,13.83
2018-12-18T01:30:54.711Z,14.73
2018-12-18T01:33:29.506Z,14.67
2018-12-18T01:36:04.351Z,14.37
2018-12-18T01:38:39.452Z,16.03
2018-12-18T01:41:14.110Z,15.93
2018-12-18T01:43:49.095Z,16.97
2018-12-18T01:46:24.078Z,17.40
2018-12-18T01:48:58.903Z,17.57
2018-12-18T01:51:33.765Z,16.80
2018-12-18T01:54:08.530Z,18.20
2018-12-18T01:56:43.413Z,19.60
2018-12-18T01:59:18.130Z,18.37
2018-12-18T02:01:52.978Z,19.80
2018-12-18T02:04:27.804Z,20.33
2018-12-18T02:07:02.788Z,20.27
2018-12-18T02:09:37.706Z,21.23
2018-12-18T02:12:12.409Z,21.00
2018-12-18T02:14:47.227Z,20.37
2018-12-18T02:17:22.004Z,21.83
2018-12-18T02:19:56.798Z,21.50
2018-12-18T02:22:31.653Z,20.57
2018-12-18T02:25:06.659Z,22.90
2018-12-18T02:27:41.533Z,21.97
2018-12-18T02:30:16.245Z,23.47
2018-12-18T02:32:51.157Z,23.67
2018-12-18T02:35:25.892Z,23.10
2018-12-18T02:38:00.498Z,24.10
2018-12-18T02:40:35.345Z,23.37
2018-12-18T02:43:10.132Z,23.57
2018-12-18T02:45:44.926Z,23.80
2018-12-18T02:48:20.039Z,22.60
2018-12-18T02:50:56.134Z,23.77
2018-12-18T02:53:31.330Z,23.40
2018-12-18T02:56:06.156Z,23.93
2018-12-18T02:58:40.898Z,23.07
2018-12-18T03:01:15.767Z,22.43
2018-12-18T03:03:50.446Z,22.20
2018-12-18T03:06:25.172Z,24.17
2018-12-18T03:08:59.907Z,23.97
2018-12-18T03:11:34.764Z,27.27
2018-12-18T03:14:09.419Z,27.33
2018-12-18T03:16:44.346Z,26.43
2018-12-18T03:19:18.973Z,26.20
2018-12-18T03:21:53.801Z,24.30
2018-12-18T03:24:28.625Z,25.73
2018-12-18T03:27:03.518Z,26.17
2018-12-18T03:29:38.418Z,25.37
2018-12-18T03:32:18.486Z,24.63
2018-12-18T03:34:53.204Z,24.10
2018-12-18T03:37:27.988Z,25.20
2018-12-18T03:40:02.667Z,24.20
2018-12-18T03:42:37.599Z,22.30
2018-12-18T03:45:12.584Z,24.83
2018-12-18T03:47:47.490Z,22.43
2018-12-18T03:50:22.436Z,22.63
2018-12-18T03:52:57.287Z,21.60
2018-12-18T03:55:32.162Z,22.60
2018-12-18T03:58:07.026Z,22.33
2018-12-18T04:00:42.006Z,21.73
2018-12-18T04:03:16.685Z,20.87
2018-12-18T04:05:51.630Z,22.10
2018-12-18T04:08:26.422Z,23.20
2018-12-18T04:11:01.255Z,20.60
2018-12-18T04:13:36.176Z,21.77
2018-12-18T04:16:10.949Z,19.90
2018-12-18T04:18:45.921Z,21.43
2018-12-18T04:21:20.605Z,21.40
2018-12-18T04:23:55.507Z,24.07
2018-12-18T04:26:30.309Z,21.90
2018-12-18T04:29:05.083Z,21.43
2018-12-18T04:31:39.959Z,21.23
2018-12-18T04:34:14.661Z,19.53
2018-12-18T04:36:49.565Z,17.37
2018-12-18T04:39:24.500Z,15.47
2018-12-18T04:41:59.285Z,16.23
2018-12-18T04:44:34.216Z,15.70
2018-12-18T04:47:09.007Z,16.60
2018-12-18T04:49:43.856Z,16.30
2018-12-18T04:52:18.629Z,15.40
2018-12-18T04:54:53.658Z,14.23
2018-12-18T04:57:28.468Z,13.20
2018-12-18T05:00:03.434Z,13.57
2018-12-18T05:02:38.099Z,13.30
2018-12-18T05:05:12.867Z,12.60
2018-12-18T05:07:47.665Z,13.03
2018-12-18T05:10:22.385Z,12.17
2018-12-18T05:12:57.258Z,12.80
2018-12-18T05:15:32.057Z,11.13
2018-12-18T05:18:06.890Z,12.83
2018-12-18T05:20:41.616Z,12.80
2018-12-18T05:23:16.339Z,11.73
2018-12-18T05:25:51.302Z,12.67
2018-12-18T05:28:26.042Z,13.53
2018-12-18T05:31:00.821Z,13.80
2018-12-18T05:33:35.664Z,15.70
2018-12-18T05:36:10.412Z,16.07
2018-12-18T05:38:45.236Z,19.57
2018-12-18T05:41:20.034Z,19.67
2018-12-18T05:43:54.818Z,18.67
2018-12-18T05:46:29.544Z,16.60
2018-12-18T05:49:04.469Z,17.27
2018-12-18T05:51:39.109Z,17.23
2018-12-18T05:54:13.815Z,16.83
2018-12-18T05:56:48.562Z,16.93
2018-12-18T05:59:23.283Z,17.87
2018-12-18T06:01:58.223Z,15.43
2018-12-18T06:04:33.175Z,15.83
2018-12-18T06:07:07.983Z,15.00
2018-12-18T06:09:42.933Z,15.47
2018-12-18T06:12:17.736Z,13.87
2018-12-18T06:14:52.729Z,15.20
2018-12-18T06:17:27.446Z,14.73
2018-12-18T06:20:02.351Z,14.70
2018-12-18T06:22:37.196Z,13.93
2018-12-18T06:25:12.152Z,12.70
2018-12-18T06:27:46.753Z,15.00
2018-12-18T06:30:21.483Z,16.67
2018-12-18T06:33:02.710Z,15.07
2018-12-18T06:35:37.305Z,15.07
2018-12-18T06:38:12.057Z,15.97
2018-12-18T06:40:46.916Z,15.80
2018-12-18T06:43:21.808Z,15.33
2018-12-18T06:45:56.766Z,15.23
2018-12-18T06:48:31.865Z,16.27
2018-12-18T06:51:06.542Z,16.77
2018-12-18T06:53:41.503Z,16.97
2018-12-18T06:56:16.335Z,18.03
2018-12-18T06:58:51.170Z,15.83
2018-12-18T07:01:26.024Z,15.10
2018-12-18T07:04:00.667Z,12.33
2018-12-18T07:06:35.549Z,11.17
2018-12-18T07:09:10.292Z,10.97
2018-12-18T07:11:45.267Z,10.03
2018-12-18T07:14:20.110Z,10.40
2018-12-18T07:16:55.143Z,10.13
2018-12-18T07:19:29.905Z,10.93
2018-12-18T07:22:04.572Z,10.73
2018-12-18T07:24:39.397Z,14.17
2018-12-18T07:27:14.257Z,14.57
2018-12-18T07:29:49.127Z,14.57
2018-12-18T07:32:23.994Z,14.67
2018-12-18T07:34:58.769Z,15.57
2018-12-18T07:37:33.631Z,15.47
2018-12-18T07:40:08.473Z,16.30
2018-12-18T07:42:43.385Z,16.73
2018-12-18T07:45:18.144Z,18.17
2018-12-18T07:47:52.989Z,19.00
2018-12-18T07:50:27.743Z,21.67
2018-12-18T07:53:02.511Z,19.80
2018-12-18T07:55:37.210Z,18.40
2018-12-18T07:58:12.090Z,23.17
2018-12-18T08:00:47.092Z,23.13
2018-12-18T08:03:21.862Z,18.87
2018-12-18T08:05:56.414Z,20.27
2018-12-18T08:08:31.861Z,23.37
2018-12-18T08:11:07.163Z,21.00
2018-12-18T08:13:47.066Z,22.30
2018-12-18T08:16:22.011Z,18.93
2018-12-18T08:18:56.741Z,21.10
2018-12-18T08:21:31.502Z,19.67
2018-12-18T08:24:06.309Z,18.23
2018-12-18T08:26:41.320Z,18.23
2018-12-18T08:29:16.256Z,17.33
2018-12-18T08:31:51.103Z,16.40
2018-12-18T08:34:25.976Z,16.17
2018-12-18T08:37:07.408Z,15.50
2018-12-18T08:39:42.168Z,15.73
2018-12-18T08:42:17.047Z,15.60
2018-12-18T08:44:51.873Z,15.57
2018-12-18T08:47:26.706Z,13.90
2018-12-18T08:50:01.845Z,14.40
2018-12-18T08:52:36.844Z,14.03
2018-12-18T08:55:11.902Z,12.77
2018-12-18T08:57:46.571Z,13.57
2018-12-18T09:00:21.487Z,13.37
2018-12-18T09:02:56.365Z,12.97
2018-12-18T09:05:31.492Z,13.50
2018-12-18T09:08:06.428Z,16.17
2018-12-18T09:10:41.228Z,15.60
2018-12-18T09:13:15.981Z,16.43
2018-12-18T09:15:57.943Z,14.80
2018-12-18T09:18:32.808Z,15.70
2018-12-18T09:21:07.705Z,16.03
2018-12-18T09:23:42.575Z,14.93
2018-12-18T09:26:17.369Z,16.33
2018-12-18T09:28:52.103Z,16.17
2018-12-18T09:31:26.828Z,16.33
2018-12-18T09:34:01.575Z,16.37
2018-12-18T09:36:39.149Z,16.87
2018-12-18T09:39:23.711Z,18.90
2018-12-18T09:42:03.610Z,17.70
2018-12-18T09:44:38.459Z,13.30
2018-12-18T09:47:13.355Z,15.20
2018-12-18T09:49:48.285Z,18.30
2018-12-18T09:52:23.089Z,16.83
2018-12-18T09:54:57.854Z,18.23
2018-12-18T09:58:41.582Z,18.47
2018-12-18T10:01:16.303Z,15.97
2018-12-18T10:03:51.157Z,19.13
2018-12-18T10:06:26.071Z,18.80
2018-12-18T10:09:00.952Z,20.43
2018-12-18T10:11:35.656Z,20.70
2018-12-18T10:14:10.594Z,19.40
2018-12-18T10:16:45.512Z,17.47
2018-12-18T10:19:20.533Z,18.27
2018-12-18T10:21:55.269Z,19.57
2018-12-18T10:24:30.101Z,19.10
2018-12-18T10:27:04.913Z,22.03
2018-12-18T10:29:39.987Z,20.87
2018-12-18T10:32:14.730Z,24.67
2018-12-18T10:34:49.414Z,22.37
2018-12-18T10:37:24.365Z,21.27
2018-12-18T10:39:59.204Z,23.73
2018-12-18T10:42:34.064Z,22.07
2018-12-18T10:45:13.838Z,22.40
2018-12-18T10:47:48.600Z,21.93
2018-12-18T10:50:23.488Z,21.73
2018-12-18T10:52:58.419Z,20.77
2018-12-18T10:55:33.425Z,21.07
2018-12-18T10:58:08.374Z,22.43
2018-12-18T11:00:48.717Z,25.03
2018-12-18T11:03:30.125Z,26.53
2018-12-18T11:06:09.910Z,24.13
2018-12-18T11:08:41.746Z,25.73
2018-12-18T11:11:16.661Z,24.37
2018-12-18T11:13:51.386Z,26.67
2018-12-18T11:16:26.132Z,27.43
2018-12-18T11:19:01.014Z,27.10
2018-12-18T11:21:35.947Z,26.60
2018-12-18T11:24:11.233Z,25.87
2018-12-18T11:26:46.163Z,23.93
2018-12-18T11:29:20.891Z,25.97
2018-12-18T11:31:55.827Z,25.47
2018-12-18T11:34:30.652Z,26.13
2018-12-18T11:37:05.530Z,23.37
2018-12-18T11:39:40.347Z,27.53
2018-12-18T11:42:15.109Z,22.97
2018-12-18T11:44:49.721Z,23.87
2018-12-18T11:47:24.676Z,23.63
2018-12-18T11:49:59.314Z,22.80
2018-12-18T11:52:34.289Z,25.10
2018-12-18T11:55:09.219Z,24.53
2018-12-18T11:57:44.104Z,26.10
2018-12-18T12:00:18.949Z,24.80
2018-12-18T12:02:53.691Z,23.07
2018-12-18T12:05:28.399Z,25.43
2018-12-18T12:08:03.332Z,23.20
2018-12-18T12:10:38.102Z,26.03
2018-12-18T12:13:13.651Z,26.27
2018-12-18T12:15:48.383Z,25.07
2018-12-18T12:18:23.032Z,24.53
2018-12-18T12:20:57.818Z,24.10
2018-12-18T12:23:32.700Z,23.90
2018-12-18T12:26:12.906Z,25.67
2018-12-18T12:28:47.511Z,24.57
2018-12-18T12:31:22.411Z,23.20
2018-12-18T12:33:57.255Z,21.67
2018-12-18T12:36:32.338Z,23.53
2018-12-18T12:39:08.995Z,22.70
2018-12-18T12:41:43.800Z,21.93
2018-12-18T12:44:18.740Z,22.70
2018-12-18T12:46:53.649Z,23.00
2018-12-18T12:49:33.474Z,22.37
2018-12-18T12:52:08.103Z,21.67
2018-12-18T12:54:42.946Z,21.73
2018-12-18T12:57:17.819Z,20.30
2018-12-18T12:59:52.654Z,22.20
2018-12-18T13:02:27.351Z,19.50
2018-12-18T13:05:02.138Z,19.27
2018-12-18T13:07:36.831Z,21.97
2018-12-18T13:10:11.630Z,23.10
2018-12-18T13:12:46.318Z,23.27
2018-12-18T13:15:21.252Z,21.97
2018-12-18T13:17:56.041Z,23.80
2018-12-18T13:20:30.986Z,22.67
2018-12-18T13:23:05.798Z,21.40
2018-12-18T13:25:40.644Z,20.47
2018-12-18T13:28:16.107Z,19.47
2018-12-18T13:30:50.882Z,18.60
2018-12-18T13:33:25.620Z,18.13
2018-12-18T13:36:00.565Z,16.63
2018-12-18T13:38:35.418Z,17.70
2018-12-18T13:41:10.100Z,14.57
2018-12-18T13:43:44.724Z,15.00
2018-12-18T13:46:19.383Z,16.00
2018-12-18T13:48:54.288Z,15.50
2018-12-18T13:51:29.225Z,15.77
2018-12-18T13:54:04.074Z,15.63
2018-12-18T13:56:39.017Z,16.10
2018-12-18T13:59:13.873Z,17.43
2018-12-18T14:01:48.610Z,16.83
2018-12-18T14:04:23.529Z,15.80
2018-12-18T14:06:58.364Z,17.83
2018-12-18T14:09:33.098Z,17.13
2018-12-18T14:12:07.950Z,16.83
2018-12-18T14:14:42.734Z,15.30
2018-12-18T14:17:17.821Z,17.57
2018-12-18T14:19:52.477Z,16.07
2018-12-18T14:22:27.281Z,17.77
2018-12-18T14:25:02.134Z,16.67
2018-12-18T14:27:36.987Z,18.47
2018-12-18T14:30:12.102Z,18.00
2018-12-18T14:32:46.833Z,17.67
2018-12-18T14:35:22.036Z,18.93
2018-12-18T14:37:56.720Z,19.87
2018-12-18T14:40:31.620Z,17.37
2018-12-18T14:43:06.285Z,18.20
2018-12-18T14:45:40.936Z,18.83
2018-12-18T14:48:15.575Z,17.07
2018-12-18T14:50:50.464Z,19.33
2018-12-18T14:53:25.362Z,18.67
2018-12-18T14:56:00.168Z,17.70
2018-12-18T14:58:35.037Z,19.27
2018-12-18T15:01:09.904Z,20.83
2018-12-18T15:03:44.688Z,19.83
2018-12-18T15:06:19.634Z,20.17
2018-12-18T15:08:54.495Z,21.73
2018-12-18T15:11:29.237Z,20.47
2018-12-18T15:14:04.051Z,19.33
2018-12-18T15:16:38.898Z,20.17
2018-12-18T15:19:13.779Z,18.97
2018-12-18T15:21:48.545Z,18.53
2018-12-18T15:24:23.945Z,17.23
2018-12-18T15:26:58.671Z,18.50
2018-12-18T15:29:33.661Z,18.87
2018-12-18T15:32:08.558Z,17.67
2018-12-18T15:34:43.372Z,19.30
2018-12-18T15:37:18.214Z,18.83
2018-12-18T15:39:53.180Z,18.30
2018-12-18T15:42:28.078Z,18.60
2018-12-18T15:45:02.949Z,18.97
2018-12-18T15:47:37.749Z,17.97
2018-12-18T15:50:12.933Z,18.07
2018-12-18T15:52:47.893Z,16.13
2018-12-18T15:55:23.747Z,17.23
2018-12-18T15:57:58.615Z,16.17
2018-12-18T16:00:33.543Z,15.77
2018-12-18T16:03:08.311Z,17.13
2018-12-18T16:05:43.160Z,16.20
2018-12-18T16:08:17.788Z,17.20
2018-12-18T16:10:52.649Z,17.33
2018-12-18T16:13:27.466Z,18.17
2018-12-18T16:16:09.462Z,15.87
2018-12-18T16:18:44.315Z,17.10
2018-12-18T16:21:19.110Z,18.00
2018-12-18T16:23:53.936Z,16.90
2018-12-18T16:26:28.768Z,17.50
2018-12-18T16:29:03.744Z,18.47
2018-12-18T16:31:38.481Z,17.43
2018-12-18T16:34:13.317Z,16.63
2018-12-18T16:36:48.263Z,17.03
2018-12-18T16:39:23.050Z,17.50
2018-12-18T16:41:57.834Z,16.83
2018-12-18T16:44:32.568Z,17.87
2018-12-18T16:47:07.240Z,17.10
2018-12-18T16:49:42.129Z,17.03
2018-12-18T16:52:22.414Z,16.87
2018-12-18T16:54:57.267Z,17.83
2018-12-18T16:57:32.096Z,16.90
2018-12-18T17:00:09.374Z,16.93
2018-12-18T17:02:45.038Z,16.17
2018-12-18T17:05:19.779Z,17.90
2018-12-18T17:07:54.699Z,16.77
2018-12-18T17:10:29.552Z,18.87
2018-12-18T17:13:04.403Z,18.50
2018-12-18T17:15:39.193Z,20.10
2018-12-18T17:18:14.033Z,19.00
2018-12-18T17:20:49.041Z,18.67
2018-12-18T17:23:23.716Z,17.43
2018-12-18T17:25:58.443Z,19.27
2018-12-18T17:28:33.223Z,18.83
2018-12-18T17:31:08.054Z,19.93
2018-12-18T17:33:42.884Z,18.97
2018-12-18T17:36:17.868Z,23.47
2018-12-18T17:38:52.776Z,21.40
2018-12-18T17:41:27.596Z,19.33
2018-12-18T17:44:02.410Z,18.73
2018-12-18T17:46:37.249Z,17.97
2018-12-18T17:49:11.858Z,20.30
2018-12-18T17:51:46.704Z,19.10
2018-12-18T17:54:21.537Z,18.67
2018-12-18T17:56:56.441Z,19.20
2018-12-18T17:59:31.408Z,18.77
2018-12-18T18:02:06.337Z,19.23
2018-12-18T18:04:41.287Z,19.00
2018-12-18T18:07:15.859Z,20.33
2018-12-18T18:09:50.766Z,19.00
2018-12-18T18:12:29.880Z,19.70
2018-12-18T18:15:02.254Z,18.67
2018-12-18T18:17:36.960Z,18.13
2018-12-18T18:20:12.180Z,21.23
2018-12-18T18:22:46.992Z,20.17
2018-12-18T18:25:21.847Z,18.83
2018-12-18T18:27:56.782Z,17.70
2018-12-18T18:30:31.917Z,17.57
2018-12-18T18:33:06.475Z,18.50
2018-12-18T18:35:41.257Z,18.57
2018-12-18T18:38:16.172Z,18.53
2018-12-18T18:40:50.805Z,18.13
2018-12-18T18:43:25.519Z,18.67
2018-12-18T18:46:00.366Z,18.97
2018-12-18T18:48:35.611Z,19.30
2018-12-18T18:51:10.480Z,18.67
2018-12-18T18:53:45.295Z,19.23
2018-12-18T18:56:20.496Z,17.67
2018-12-18T18:58:55.404Z,18.67
2018-12-18T19:01:30.131Z,17.53
2018-12-18T19:04:05.105Z,18.67
2018-12-18T19:06:40.211Z,19.13
2018-12-18T19:09:15.023Z,18.80
2018-12-18T19:11:49.677Z,18.63
2018-12-18T19:14:24.578Z,19.47
2018-12-18T19:16:59.609Z,19.53
2018-12-18T19:19:34.653Z,19.67
2018-12-18T19:22:09.612Z,19.77
2018-12-18T19:24:44.357Z,19.73
2018-12-18T19:27:19.104Z,20.47
2018-12-18T19:29:53.775Z,16.90
2018-12-18T19:32:28.597Z,18.00
2018-12-18T19:35:03.553Z,17.53
2018-12-18T19:37:38.213Z,17.83
2018-12-18T19:40:13.083Z,17.83
2018-12-18T19:42:47.958Z,17.67
2018-12-18T19:45:22.721Z,18.60
2018-12-18T19:47:57.529Z,19.27
2018-12-18T19:50:32.434Z,19.23
2018-12-18T19:53:07.210Z,19.93
2018-12-18T19:55:42.102Z,19.93
2018-12-18T19:58:16.825Z,19.77
2018-12-18T20:00:51.811Z,19.70
2018-12-18T20:03:26.537Z,22.03
2018-12-18T20:06:01.384Z,21.90
2018-12-18T20:08:36.371Z,22.27
2018-12-18T20:11:11.029Z,21.67
2018-12-18T20:13:46.041Z,22.37
2018-12-18T20:16:20.910Z,24.93
2018-12-18T20:18:55.850Z,24.53
2018-12-18T20:21:30.556Z,19.97
2018-12-18T20:24:05.203Z,21.83
2018-12-18T20:26:40.020Z,21.87
2018-12-18T20:29:14.850Z,20.83
2018-12-18T20:31:49.710Z,19.87
2018-12-18T20:34:24.704Z,20.47
2018-12-18T20:36:59.631Z,22.63
2018-12-18T20:39:34.485Z,21.90
2018-12-18T20:42:09.204Z,21.73
2018-12-18T20:44:44.003Z,22.47
2018-12-18T20:47:18.698Z,21.03
2018-12-18T20:49:53.523Z,21.17
2018-12-18T20:52:28.340Z,22.43
2018-12-18T20:55:03.217Z,22.07
2018-12-18T20:57:37.902Z,23.00
2018-12-18T21:00:13.839Z,21.43
2018-12-18T21:02:48.480Z,20.67
2018-12-18T21:05:23.427Z,20.63
2018-12-18T21:07:58.500Z,20.13
2018-12-18T21:10:33.358Z,21.40
2018-12-18T21:13:13.530Z,22.73
2018-12-18T21:15:48.690Z,21.33
2018-12-18T21:18:23.377Z,22.13
2018-12-18T21:20:58.109Z,23.23
2018-12-18T21:23:32.858Z,23.77
2018-12-18T21:26:07.688Z,24.33
2018-12-18T21:28:42.716Z,23.37
2018-12-18T21:31:17.580Z,24.27
2018-12-18T21:33:52.395Z,24.77
2018-12-18T21:36:28.114Z,24.33
2018-12-18T21:39:03.060Z,23.17
2018-12-18T21:41:37.776Z,22.23
2018-12-18T21:44:12.522Z,22.17
2018-12-18T21:46:47.938Z,21.67
2018-12-18T21:49:23.045Z,22.13
2018-12-18T21:51:58.131Z,23.23
2018-12-18T21:54:33.027Z,23.13
2018-12-18T21:57:07.700Z,21.67
2018-12-18T21:59:42.819Z,22.17
2018-12-18T22:02:17.472Z,22.63
2018-12-18T22:04:52.590Z,22.07
2018-12-18T22:07:27.254Z,22.10
2018-12-18T22:10:02.136Z,23.03
2018-12-18T22:12:37.013Z,22.60
2018-12-18T22:15:17.285Z,22.47
2018-12-18T22:17:52.167Z,22.87
2018-12-18T22:20:27.007Z,24.33
2018-12-18T22:23:01.825Z,23.43
2018-12-18T22:25:36.881Z,25.37
2018-12-18T22:28:12.147Z,23.67
2018-12-18T22:30:46.930Z,25.43
2018-12-18T22:33:21.780Z,23.20
2018-12-18T22:35:56.512Z,24.23
2018-12-18T22:38:31.229Z,23.97
2018-12-18T22:41:06.205Z,22.80
2018-12-18T22:43:41.255Z,24.13
2018-12-18T22:46:15.901Z,21.17
2018-12-18T22:48:50.673Z,23.53
2018-12-18T22:51:25.559Z,26.30
2018-12-18T22:54:00.578Z,23.53
2018-12-18T22:56:35.382Z,25.60
2018-12-18T22:59:10.058Z,24.53
2018-12-18T23:01:44.858Z,23.47
2018-12-18T23:04:19.742Z,22.57
2018-12-18T23:06:54.537Z,22.97
2018-12-18T23:09:29.498Z,21.80
2018-12-18T23:12:04.528Z,23.37
2018-12-18T23:14:39.258Z,24.77
2018-12-18T23:17:14.174Z,22.87
2018-12-18T23:19:48.943Z,21.23
2018-12-18T23:22:23.660Z,22.87
2018-12-18T23:24:58.464Z,23.90
2018-12-18T23:27:33.106Z,24.43
2018-12-18T23:30:07.996Z,25.70
2018-12-18T23:32:49.648Z,26.00
2018-12-18T23:35:24.524Z,27.17
2018-12-18T23:37:59.180Z,25.80
2018-12-18T23:40:34.107Z,25.83
2018-12-18T23:43:08.817Z,24.47
2018-12-18T23:45:43.777Z,24.93
2018-12-18T23:48:18.589Z,25.53
2018-12-18T23:50:53.483Z,21.97
2018-12-18T23:53:28.252Z,20.90
2018-12-18T23:56:03.032Z,20.67
2018-12-18T23:58:37.764Z,17.17
